KGUS/GUS METAR and TAF weather

Enter ICAO airport designator
Station Type Date Time Source
KGUS METAR 2023/01/30 10:44 UTC NOAA

KGUS 301044Z AUTO 34006KT 10SM -UP SCT009 BKN027 OVC038 M03/M05 A3023 RMK AO2 UPE0958UPB44 CIG 024 RWY05 SLP250


Station Type Date Time Source
KGUS Decoded METAR 2023/01/30 10:44 UTC NOAA

Grissom Air Force Base / Peru, IN, United States (KGUS) 40-39N 086-09W
Jan 30, 2023 - 05:44 AM EST / 2023.01.30 1044 UTC
Wind: from the NNW (340 degrees) at 7 MPH (6 KT):0
Visibility: 10 mile(s):0
Sky conditions: overcast
Weather: light precipitation
Temperature: 26 F (-3 C)
Windchill: 17 F (-8 C):1
Dew Point: 23 F (-5 C)
Relative Humidity: 86%
Pressure (altimeter): 30.23 in. Hg (1023 hPa)
ob: KGUS 301044Z AUTO 34006KT 10SM -UP SCT009 BKN027 OVC038 M03/M05 A3023 RMK AO2 UPE0958UPB44 CIG 024 RWY05 SLP250
cycle: 10

Station Type Date Time Source
KGUS TAF 2023/01/29 21:08 UTC NOAA

TAF KGUS 292100Z 2921/3103 34012KT 9999 BKN014 OVC250 620146 QNH3012INS
BECMG 3004/3005 VRB06KT 8000 -SN BR BKN007 OVC011 620077 QNH3020INS
TEMPO 3006/3013 -FZDZ BKN005 OVC010 660001 650107
BECMG 3012/3013 VRB06KT 9999 NSW SCT004 OVC011 620117 QNH3020INS
BECMG 3014/3015 35010G15KT 9999 BKN012 OVC018 620127 QNH3029INS
BECMG 3019/3020 32015KT 9999 OVC018 620187 QNH3029INS TX00/2921Z TNM06/3012Z LAST NO
AMDS AFT 3004 NEXT 3013

Example: see airport list